Time;durP1;ratioP1;P1;durP2;ratioP2;P2;SDS_P1;SDS_P2;PMS_P1;PMS_P2;Temp;Humidity;BMP_temperature;BMP_pressure;BME280_temperature;BME280_humidity;BME280_pressure;Samples;Min_cycle;Max_cycle;Signal;HPM_P1;HPM_P2
2021/05/29 00:00:56;;;;;;;3.63;2.90;;;11.30;73.30;;;;;;5017385;28;20229;-70
2021/05/29 00:03:24;;;;;;;2.83;2.63;;;11.20;73.20;;;;;;5019652;28;20246;-69
2021/05/29 00:05:50;;;;;;;2.47;2.20;;;11.20;72.70;;;;;;5021134;28;20776;-70
2021/05/29 00:08:16;;;;;;;3.03;2.73;;;11.20;73.30;;;;;;5021244;28;20254;-69
2021/05/29 00:10:45;;;;;;;2.80;2.53;;;11.20;72.90;;;;;;5016250;28;20192;-70
2021/05/29 00:13:11;;;;;;;2.90;2.27;;;11.20;72.30;;;;;;5018241;28;20193;-70
2021/05/29 00:15:38;;;;;;;3.10;2.90;;;11.20;72.20;;;;;;5017696;28;20244;-70
2021/05/29 00:18:05;;;;;;;2.90;2.60;;;11.20;71.90;;;;;;5014302;28;20314;-70
2021/05/29 00:20:31;;;;;;;2.73;2.53;;;11.20;72.10;;;;;;5015902;28;20695;-69
2021/05/29 00:22:56;;;;;;;5.43;2.87;;;11.20;72.00;;;;;;5018216;28;20705;-70
2021/05/29 00:25:22;;;;;;;5.13;2.83;;;11.20;72.00;;;;;;5019433;28;20222;-69
2021/05/29 00:27:48;;;;;;;2.90;2.30;;;11.10;72.70;;;;;;5018308;28;20255;-70
2021/05/29 00:30:14;;;;;;;2.93;2.40;;;11.10;73.10;;;;;;5016106;28;20313;-69
2021/05/29 00:32:40;;;;;;;2.90;2.27;;;11.10;73.10;;;;;;5022955;28;20195;-69
2021/05/29 00:35:08;;;;;;;2.67;2.47;;;11.00;73.00;;;;;;5021314;28;20695;-70
2021/05/29 00:37:34;;;;;;;3.40;2.80;;;11.00;73.10;;;;;;5013610;28;20194;-70
2021/05/29 00:39:59;;;;;;;2.73;2.40;;;11.00;74.00;;;;;;5025110;28;20227;-70
2021/05/29 00:42:26;;;;;;;4.20;2.67;;;11.00;74.00;;;;;;5024378;28;20239;-69
2021/05/29 00:44:54;;;;;;;3.73;2.50;;;10.90;75.00;;;;;;5022720;28;20277;-69
2021/05/29 00:47:22;;;;;;;4.80;2.83;;;10.90;75.50;;;;;;5022851;28;20304;-70
2021/05/29 00:49:49;;;;;;;3.47;2.87;;;10.80;75.80;;;;;;5019683;28;20233;-69
2021/05/29 00:52:15;;;;;;;4.03;2.70;;;10.80;76.30;;;;;;5022829;28;20187;-69
2021/05/29 00:54:45;;;;;;;2.77;2.50;;;10.70;76.30;;;;;;5021914;28;20238;-69
2021/05/29 00:57:12;;;;;;;2.67;2.47;;;10.70;76.80;;;;;;5021943;28;20218;-69
2021/05/29 00:59:38;;;;;;;3.00;2.77;;;10.70;76.90;;;;;;5022665;28;20238;-69
2021/05/29 01:02:06;;;;;;;3.23;2.80;;;10.60;77.90;;;;;;5019975;28;20390;-69
2021/05/29 01:04:31;;;;;;;3.63;2.80;;;10.50;77.70;;;;;;5021502;28;21238;-69
2021/05/29 01:06:57;;;;;;;3.30;3.00;;;10.50;78.20;;;;;;5027106;28;20287;-69
2021/05/29 01:09:24;;;;;;;3.47;2.67;;;10.50;77.60;;;;;;5024215;28;20223;-68
2021/05/29 01:11:51;;;;;;;2.77;2.57;;;10.50;77.80;;;;;;5021751;28;20318;-68
2021/05/29 01:14:16;;;;;;;4.07;3.00;;;10.40;78.00;;;;;;5018333;28;20239;-69
2021/05/29 01:16:54;;;;;;;2.83;2.60;;;10.50;78.30;;;;;;5019519;28;20194;-71
2021/05/29 01:19:20;;;;;;;2.80;2.60;;;10.40;78.00;;;;;;5020206;28;20186;-70
2021/05/29 01:21:45;;;;;;;3.17;2.87;;;10.40;78.20;;;;;;5021619;28;20246;-69
2021/05/29 01:24:11;;;;;;;3.40;2.87;;;10.40;78.30;;;;;;5022850;28;21079;-70
2021/05/29 01:26:37;;;;;;;3.23;2.40;;;10.30;78.30;;;;;;5023614;28;20227;-70
2021/05/29 01:29:02;;;;;;;4.60;3.33;;;10.30;78.40;;;;;;5022513;28;20268;-70
2021/05/29 01:31:31;;;;;;;2.77;2.50;;;10.30;78.10;;;;;;5026412;28;20199;-70
2021/05/29 01:33:59;;;;;;;3.70;2.67;;;10.30;78.40;;;;;;5021316;28;20186;-70
2021/05/29 01:36:26;;;;;;;2.90;2.60;;;10.30;78.30;;;;;;5021889;28;20245;-69
2021/05/29 01:38:53;;;;;;;3.10;2.47;;;10.30;78.20;;;;;;5018401;28;20234;-69
2021/05/29 01:41:21;;;;;;;2.90;2.40;;;10.30;78.20;;;;;;5018642;28;20247;-69
2021/05/29 01:43:49;;;;;;;3.23;2.40;;;10.20;78.10;;;;;;5018613;28;20211;-69
2021/05/29 01:46:20;;;;;;;2.80;2.50;;;10.20;77.90;;;;;;5021255;28;20184;-69
2021/05/29 01:48:48;;;;;;;2.60;2.40;;;10.20;78.10;;;;;;5020487;28;20581;-69
2021/05/29 01:51:15;;;;;;;2.73;2.13;;;10.20;78.10;;;;;;5018992;28;20660;-68
2021/05/29 01:53:41;;;;;;;4.17;2.70;;;10.20;78.00;;;;;;5021940;28;20251;-69
2021/05/29 01:56:07;;;;;;;3.90;2.23;;;10.20;78.10;;;;;;5023113;28;20311;-69
2021/05/29 01:58:34;;;;;;;3.23;2.87;;;10.20;78.30;;;;;;5022859;28;20200;-69
2021/05/29 02:01:00;;;;;;;3.03;2.73;;;10.10;78.40;;;;;;5022218;28;20211;-69
2021/05/29 02:03:26;;;;;;;3.90;2.33;;;10.00;79.10;;;;;;5020034;28;20351;-70
2021/05/29 02:05:51;;;;;;;3.43;2.60;;;9.90;80.80;;;;;;5018324;28;20673;-70
2021/05/29 02:08:17;;;;;;;3.30;2.40;;;9.90;81.40;;;;;;5019512;28;20233;-70
2021/05/29 02:10:46;;;;;;;3.17;2.30;;;9.80;82.50;;;;;;5020202;28;20203;-70
2021/05/29 02:13:26;;;;;;;2.90;2.57;;;9.70;83.10;;;;;;5019576;28;20206;-69
2021/05/29 02:15:53;;;;;;;4.20;3.80;;;9.60;83.50;;;;;;5019263;28;20222;-69
2021/05/29 02:18:19;;;;;;;2.23;2.10;;;9.50;84.40;;;;;;5019486;28;20651;-69
2021/05/29 02:20:58;;;;;;;2.90;2.67;;;9.40;85.30;;;;;;5020945;28;20295;-70
2021/05/29 02:23:26;;;;;;;2.97;2.67;;;9.30;86.30;;;;;;5017959;28;20310;-69
2021/05/29 02:25:55;;;;;;;3.13;2.83;;;9.30;87.70;;;;;;5020159;28;20233;-69
2021/05/29 02:28:21;;;;;;;4.33;2.83;;;9.20;88.90;;;;;;5017713;28;20255;-69
2021/05/29 02:30:48;;;;;;;3.30;2.90;;;9.20;88.80;;;;;;5018297;28;20241;-70
2021/05/29 02:33:14;;;;;;;3.63;2.67;;;9.10;89.40;;;;;;5019491;28;20238;-70
2021/05/29 02:35:40;;;;;;;6.00;3.07;;;9.10;88.70;;;;;;5019965;28;20296;-69
2021/05/29 02:38:06;;;;;;;3.37;2.77;;;9.00;89.60;;;;;;5013044;28;20238;-69
2021/05/29 02:40:32;;;;;;;3.33;2.87;;;9.00;90.20;;;;;;5014967;28;20198;-69
2021/05/29 02:42:58;;;;;;;6.20;2.90;;;8.90;90.40;;;;;;5020954;28;20275;-69
2021/05/29 02:45:24;;;;;;;4.13;2.97;;;8.90;90.60;;;;;;5019362;28;20242;-69
2021/05/29 02:47:50;;;;;;;3.80;2.83;;;9.00;90.90;;;;;;5014868;28;20274;-69
2021/05/29 02:50:16;;;;;;;2.97;2.70;;;8.80;91.10;;;;;;5018008;28;20660;-69
2021/05/29 02:52:41;;;;;;;2.80;2.57;;;8.80;91.30;;;;;;5021107;28;20195;-70
2021/05/29 02:55:11;;;;;;;3.57;3.13;;;8.70;91.30;;;;;;5018233;28;20629;-69
2021/05/29 02:57:37;;;;;;;5.03;2.87;;;8.70;91.60;;;;;;5018208;28;20228;-70
2021/05/29 03:00:09;;;;;;;2.83;2.60;;;8.70;91.90;;;;;;5014659;28;20247;-70
2021/05/29 03:02:35;;;;;;;3.30;2.80;;;8.70;91.90;;;;;;5020689;28;22428;-70
2021/05/29 03:05:00;;;;;;;3.50;3.20;;;8.60;91.90;;;;;;5019354;28;20239;-70
2021/05/29 03:07:26;;;;;;;3.57;2.97;;;8.60;92.40;;;;;;5022635;28;20195;-70
2021/05/29 03:09:51;;;;;;;3.43;3.03;;;8.60;92.50;;;;;;5016903;28;20215;-69
2021/05/29 03:12:17;;;;;;;3.10;2.77;;;8.50;92.80;;;;;;5015137;28;20771;-69
2021/05/29 03:14:43;;;;;;;3.97;3.53;;;8.70;92.90;;;;;;5018522;28;20774;-69
2021/05/29 03:17:08;;;;;;;2.83;2.37;;;8.60;92.80;;;;;;5015259;28;20223;-69
2021/05/29 03:19:34;;;;;;;5.33;3.30;;;8.60;92.80;;;;;;5017943;28;20262;-70
2021/05/29 03:22:00;;;;;;;4.93;3.10;;;8.50;93.50;;;;;;5016552;28;20189;-70
2021/05/29 03:24:26;;;;;;;3.77;3.10;;;8.50;94.20;;;;;;5017613;28;20236;-69
2021/05/29 03:26:51;;;;;;;3.70;2.90;;;8.40;94.60;;;;;;5017919;28;20231;-69
2021/05/29 03:29:17;;;;;;;3.87;3.47;;;8.40;94.90;;;;;;5017771;28;20314;-69
2021/05/29 03:31:43;;;;;;;4.90;3.73;;;8.40;95.00;;;;;;5017094;28;20199;-69
2021/05/29 03:34:09;;;;;;;3.13;2.80;;;8.50;94.90;;;;;;5019791;28;20187;-69
2021/05/29 03:36:35;;;;;;;4.03;3.70;;;8.30;95.00;;;;;;5021801;28;20227;-69
2021/05/29 03:39:00;;;;;;;3.80;3.10;;;8.30;95.10;;;;;;5021039;28;20218;-69
2021/05/29 03:41:26;;;;;;;5.33;3.70;;;8.40;95.20;;;;;;5020729;28;20237;-69
2021/05/29 03:43:52;;;;;;;4.00;3.60;;;8.20;94.90;;;;;;5013719;28;20236;-70
2021/05/29 03:46:17;;;;;;;6.20;3.57;;;8.20;95.30;;;;;;5017762;28;20259;-69
2021/05/29 03:48:43;;;;;;;3.77;3.47;;;8.40;95.70;;;;;;5018208;28;20318;-69
2021/05/29 03:51:09;;;;;;;3.60;3.30;;;8.30;95.50;;;;;;5018009;28;20712;-69
2021/05/29 03:53:34;;;;;;;3.73;3.43;;;8.20;95.30;;;;;;5016961;28;20227;-69
2021/05/29 03:56:00;;;;;;;3.60;3.30;;;8.30;95.20;;;;;;5020831;28;20637;-69
2021/05/29 03:58:25;;;;;;;3.70;3.30;;;8.30;95.40;;;;;;5017710;28;20244;-69
2021/05/29 04:00:51;;;;;;;3.60;3.30;;;8.30;95.20;;;;;;5021510;28;20647;-70
2021/05/29 04:03:17;;;;;;;3.80;3.27;;;8.30;95.20;;;;;;5021062;28;20231;-69
2021/05/29 04:05:42;;;;;;;3.43;3.07;;;8.40;94.90;;;;;;5016728;28;20336;-69
2021/05/29 04:08:08;;;;;;;4.07;2.67;;;8.40;95.00;;;;;;5018981;28;20224;-69
2021/05/29 04:10:36;;;;;;;3.30;3.00;;;8.40;94.70;;;;;;5021121;28;20183;-70
2021/05/29 04:13:01;;;;;;;4.83;3.30;;;8.50;94.60;;;;;;5020973;28;20245;-70
2021/05/29 04:15:28;;;;;;;4.80;2.97;;;8.50;94.10;;;;;;5018926;28;20236;-71
2021/05/29 04:17:53;;;;;;;3.30;3.00;;;8.60;94.10;;;;;;5019699;28;20686;-70
2021/05/29 04:20:22;;;;;;;3.77;3.10;;;8.60;94.00;;;;;;5024140;28;20309;-70
2021/05/29 04:22:48;;;;;;;4.20;3.40;;;8.70;93.90;;;;;;5017506;28;20231;-70
2021/05/29 04:25:20;;;;;;;3.63;3.33;;;8.70;93.70;;;;;;5016174;28;20621;-70
2021/05/29 04:27:46;;;;;;;3.67;3.30;;;8.80;93.80;;;;;;5017816;28;20254;-70
2021/05/29 04:30:21;;;;;;;4.50;3.47;;;8.90;93.50;;;;;;5017637;28;20247;-70
2021/05/29 04:32:47;;;;;;;4.67;4.27;;;8.90;92.90;;;;;;5018367;28;20238;-70
2021/05/29 04:35:14;;;;;;;4.13;3.60;;;8.90;92.90;;;;;;5017635;28;20237;-69
2021/05/29 04:37:40;;;;;;;4.17;3.53;;;9.00;92.90;;;;;;5014249;28;20179;-71
2021/05/29 04:40:08;;;;;;;6.03;3.90;;;9.10;92.70;;;;;;5014111;28;20271;-70
2021/05/29 04:42:34;;;;;;;4.13;3.07;;;9.30;92.50;;;;;;5021455;28;20234;-70
2021/05/29 04:44:59;;;;;;;3.63;3.33;;;9.50;91.80;;;;;;5017825;28;20563;-70
2021/05/29 04:47:26;;;;;;;3.60;3.30;;;9.70;90.60;;;;;;5016944;28;20231;-70
2021/05/29 04:49:51;;;;;;;5.97;3.57;;;9.90;89.40;;;;;;5017464;28;20232;-70
2021/05/29 04:52:17;;;;;;;3.37;3.07;;;10.10;87.50;;;;;;5016779;28;20197;-70
2021/05/29 04:54:43;;;;;;;5.10;4.00;;;10.30;84.80;;;;;;5016671;28;20234;-70
2021/05/29 04:57:08;;;;;;;5.67;3.77;;;10.40;82.30;;;;;;5021972;28;20228;-70
2021/05/29 04:59:34;;;;;;;4.47;3.90;;;10.50;80.90;;;;;;5016760;28;20264;-70
2021/05/29 05:01:59;;;;;;;5.87;3.93;;;10.60;79.60;;;;;;5015752;28;21036;-70
2021/05/29 05:04:25;;;;;;;4.60;4.20;;;10.70;78.90;;;;;;5018966;28;20235;-70
2021/05/29 05:06:51;;;;;;;5.37;3.97;;;10.80;79.30;;;;;;5016534;28;21168;-70
2021/05/29 05:09:16;;;;;;;4.57;4.10;;;11.00;78.30;;;;;;5016776;28;20265;-70
2021/05/29 05:11:42;;;;;;;4.40;3.87;;;11.10;77.70;;;;;;5015347;28;20218;-70
2021/05/29 05:14:08;;;;;;;5.00;4.50;;;11.20;76.10;;;;;;5013792;28;20240;-70
2021/05/29 05:16:33;;;;;;;4.33;3.93;;;11.40;75.50;;;;;;5015984;28;21099;-69
2021/05/29 05:18:59;;;;;;;4.93;3.40;;;11.50;74.70;;;;;;5027402;28;20187;-69
2021/05/29 05:21:24;;;;;;;3.37;2.80;;;11.50;73.20;;;;;;5025107;28;20304;-69
2021/05/29 05:23:52;;;;;;;5.80;3.30;;;11.60;72.00;;;;;;5020515;28;20333;-70
2021/05/29 05:26:18;;;;;;;3.70;2.97;;;11.60;71.60;;;;;;5018884;28;20319;-70
2021/05/29 05:28:45;;;;;;;4.00;3.60;;;11.70;71.60;;;;;;5022896;28;20187;-69
2021/05/29 05:31:11;;;;;;;5.97;3.50;;;11.80;70.20;;;;;;5020589;28;20185;-69
2021/05/29 05:33:41;;;;;;;3.43;2.87;;;11.80;69.80;;;;;;5019553;28;20241;-70
2021/05/29 05:36:08;;;;;;;3.30;2.83;;;12.00;70.00;;;;;;5023114;28;20270;-70
2021/05/29 05:38:34;;;;;;;3.70;3.07;;;12.10;68.60;;;;;;5022827;28;20670;-70
2021/05/29 05:41:00;;;;;;;3.23;2.90;;;12.20;68.30;;;;;;5019642;28;20227;-69
2021/05/29 05:43:25;;;;;;;5.03;3.33;;;12.30;67.40;;;;;;5021193;28;20203;-71
2021/05/29 05:45:51;;;;;;;4.73;3.37;;;12.30;68.00;;;;;;5018441;28;20777;-69
2021/05/29 05:48:17;;;;;;;3.67;3.27;;;12.40;67.10;;;;;;5018658;28;20588;-69
2021/05/29 05:53:37;;;;;;;4.83;2.93;;;12.80;66.80;;;;;;5009512;28;20227;-69
2021/05/29 05:56:05;;;;;;;4.90;3.07;;;12.90;65.50;;;;;;5018368;28;20219;-69
2021/05/29 05:58:34;;;;;;;4.47;3.30;;;13.10;64.60;;;;;;5018989;28;20207;-69
2021/05/29 06:01:00;;;;;;;3.90;3.00;;;13.10;64.00;;;;;;5017664;28;20636;-69
2021/05/29 06:03:26;;;;;;;3.13;2.83;;;13.20;63.90;;;;;;5022505;28;20528;-69
2021/05/29 06:05:52;;;;;;;4.17;2.70;;;13.20;64.00;;;;;;5022445;28;20256;-69
2021/05/29 06:08:19;;;;;;;3.37;2.37;;;13.30;65.30;;;;;;5020757;28;20230;-69
2021/05/29 06:10:49;;;;;;;4.40;2.83;;;13.50;63.30;;;;;;5022082;28;20237;-69
2021/05/29 06:13:27;;;;;;;3.07;2.87;;;13.50;64.00;;;;;;5025252;28;20187;-69
2021/05/29 06:21:16;;;;;;;3.83;2.30;;;14.00;61.20;;;;;;5020478;28;20226;-69
2021/05/29 06:23:42;;;;;;;2.83;2.50;;;14.10;60.40;;;;;;5018982;28;20277;-69
2021/05/29 06:26:07;;;;;;;2.50;2.30;;;14.20;60.60;;;;;;5020344;28;20235;-69
2021/05/29 06:28:33;;;;;;;1.77;1.63;;;14.10;58.60;;;;;;5021187;28;20195;-69
2021/05/29 06:30:58;;;;;;;2.93;2.13;;;13.90;58.40;;;;;;5018772;28;20647;-69
2021/05/29 06:33:24;;;;;;;2.03;1.90;;;13.70;59.80;;;;;;5018034;28;20663;-70
2021/05/29 06:35:50;;;;;;;3.17;2.10;;;13.90;61.10;;;;;;5016992;28;20305;-70
2021/05/29 06:38:15;;;;;;;2.07;1.90;;;14.00;59.40;;;;;;5020703;28;20741;-69
2021/05/29 06:40:41;;;;;;;2.60;2.00;;;13.90;59.00;;;;;;5022973;28;20214;-70
2021/05/29 06:43:07;;;;;;;1.60;1.50;;;13.80;59.40;;;;;;5026268;28;20192;-70
2021/05/29 06:45:32;;;;;;;2.07;1.67;;;13.90;60.10;;;;;;5026639;28;20261;-69
2021/05/29 06:47:59;;;;;;;2.13;1.53;;;14.30;59.90;;;;;;5019686;28;20229;-69
2021/05/29 06:50:26;;;;;;;2.13;1.93;;;14.40;58.90;;;;;;5019059;28;20292;-70
2021/05/29 06:52:54;;;;;;;1.53;1.30;;;14.70;58.70;;;;;;5018635;28;20242;-70
2021/05/29 07:00:48;;;;;;;1.57;1.40;;;14.90;54.90;;;;;;5016136;28;20352;-69
2021/05/29 07:03:14;;;;;;;2.00;1.43;;;14.70;54.70;;;;;;5017833;28;20315;-70
2021/05/29 07:05:40;;;;;;;1.63;1.53;;;14.70;55.50;;;;;;5026737;28;20713;-70
2021/05/29 07:08:05;;;;;;;1.40;1.30;;;14.80;56.50;;;;;;5018070;28;20223;-70
2021/05/29 07:10:31;;;;;;;1.37;1.27;;;15.10;55.20;;;;;;5022550;28;20237;-71
2021/05/29 07:12:57;;;;;;;1.70;1.60;;;15.30;54.80;;;;;;5021446;28;20196;-70
2021/05/29 07:15:31;;;;;;;1.93;1.70;;;15.60;54.00;;;;;;5020975;28;20254;-70
2021/05/29 07:17:57;;;;;;;1.93;1.50;;;15.90;54.00;;;;;;5017021;28;20224;-70
2021/05/29 07:20:22;;;;;;;1.60;1.00;;;16.10;52.70;;;;;;5022814;28;20243;-70
2021/05/29 07:22:48;;;;;;;1.27;1.17;;;16.30;52.10;;;;;;5019548;28;20365;-70
2021/05/29 07:25:14;;;;;;;1.57;1.43;;;16.30;50.90;;;;;;5020025;28;20212;-70
2021/05/29 07:27:39;;;;;;;1.30;1.20;;;16.40;50.40;;;;;;5021313;28;20231;-70
2021/05/29 07:30:07;;;;;;;1.50;1.40;;;16.60;49.50;;;;;;5017647;28;20250;-70
2021/05/29 07:32:36;;;;;;;1.00;1.00;;;16.60;48.90;;;;;;5018841;28;20226;-70
2021/05/29 07:35:02;;;;;;;1.30;1.20;;;16.60;48.30;;;;;;5018573;28;20235;-69
2021/05/29 07:37:28;;;;;;;1.27;1.00;;;16.70;47.30;;;;;;5017542;28;20411;-70
2021/05/29 07:39:54;;;;;;;2.00;1.20;;;16.70;47.50;;;;;;5017326;28;20671;-70
2021/05/29 07:42:20;;;;;;;3.67;1.90;;;16.70;47.90;;;;;;5014752;28;20228;-70
2021/05/29 07:44:46;;;;;;;1.73;1.53;;;16.60;47.60;;;;;;5015847;28;20631;-70
2021/05/29 07:47:12;;;;;;;1.10;1.10;;;16.60;47.50;;;;;;5021288;28;20647;-71
2021/05/29 07:49:37;;;;;;;1.23;1.13;;;16.50;46.90;;;;;;5017116;28;20465;-69
2021/05/29 07:52:03;;;;;;;1.10;1.10;;;16.70;47.00;;;;;;5015566;28;20661;-68
2021/05/29 07:54:31;;;;;;;2.17;1.30;;;16.60;47.40;;;;;;5015918;28;20235;-69
2021/05/29 07:56:57;;;;;;;1.40;1.30;;;16.60;46.20;;;;;;5015762;28;20399;-68
2021/05/29 07:59:22;;;;;;;1.23;1.13;;;16.90;47.40;;;;;;5016559;28;20230;-69
2021/05/29 08:01:48;;;;;;;1.30;1.20;;;16.80;45.30;;;;;;5016282;28;20266;-68
2021/05/29 08:04:14;;;;;;;3.07;1.17;;;16.90;45.50;;;;;;5014713;28;20248;-68
2021/05/29 08:06:40;;;;;;;1.33;1.23;;;16.90;45.70;;;;;;5017104;28;20324;-69
2021/05/29 08:09:07;;;;;;;1.20;1.10;;;17.10;45.30;;;;;;5014900;28;20302;-68
2021/05/29 08:11:35;;;;;;;1.97;1.20;;;17.20;43.80;;;;;;5015867;28;20227;-68
2021/05/29 08:14:00;;;;;;;1.00;0.90;;;17.00;43.60;;;;;;5017101;28;20229;-68
2021/05/29 08:16:26;;;;;;;1.03;0.93;;;17.10;44.00;;;;;;5015676;28;20210;-69
2021/05/29 08:18:53;;;;;;;2.17;1.23;;;17.30;43.90;;;;;;5016553;28;20856;-68
2021/05/29 08:21:19;;;;;;;1.23;1.20;;;17.30;43.90;;;;;;5016095;28;20697;-68
2021/05/29 08:23:45;;;;;;;0.87;0.87;;;17.30;43.90;;;;;;5018258;28;20241;-68
2021/05/29 08:26:11;;;;;;;1.40;1.00;;;17.40;44.00;;;;;;5017250;28;20227;-68
2021/05/29 08:28:37;;;;;;;1.47;1.20;;;17.30;41.20;;;;;;5017188;28;20224;-68
2021/05/29 08:31:03;;;;;;;1.07;1.00;;;17.20;43.10;;;;;;5016397;28;20689;-68
2021/05/29 08:33:29;;;;;;;1.43;1.00;;;17.00;43.60;;;;;;5018283;28;20236;-68
2021/05/29 08:35:55;;;;;;;1.17;1.07;;;16.90;44.20;;;;;;5016067;28;20232;-68
2021/05/29 08:38:21;;;;;;;1.10;0.97;;;17.10;44.40;;;;;;5016823;28;20233;-68
2021/05/29 08:40:46;;;;;;;1.40;1.13;;;17.30;43.90;;;;;;5018554;28;21782;-68
2021/05/29 08:43:12;;;;;;;1.13;0.93;;;17.40;44.00;;;;;;5017631;28;20667;-68
2021/05/29 08:45:38;;;;;;;2.33;1.10;;;17.50;43.70;;;;;;5010775;28;20229;-69
2021/05/29 08:48:05;;;;;;;1.30;1.20;;;17.60;44.10;;;;;;5016545;28;20225;-68
2021/05/29 08:50:31;;;;;;;1.50;0.90;;;17.80;43.00;;;;;;5018677;28;20707;-69
2021/05/29 08:52:57;;;;;;;1.00;1.00;;;17.90;42.60;;;;;;5014786;28;20232;-69
2021/05/29 08:55:23;;;;;;;1.23;1.17;;;17.70;42.50;;;;;;5020174;28;20197;-69
2021/05/29 08:57:50;;;;;;;1.80;1.00;;;17.80;43.20;;;;;;5020165;28;20631;-70
2021/05/29 09:00:25;;;;;;;0.97;0.97;;;18.00;43.30;;;;;;5015664;28;20226;-68
2021/05/29 09:02:59;;;;;;;1.47;1.37;;;18.00;41.60;;;;;;5017783;28;20583;-70
2021/05/29 09:05:39;;;;;;;1.10;1.00;;;17.80;39.20;;;;;;5019936;28;20316;-69
2021/05/29 09:08:10;;;;;;;2.10;0.97;;;17.80;40.70;;;;;;5021277;28;20252;-68
2021/05/29 09:10:41;;;;;;;0.90;0.83;;;17.70;40.90;;;;;;5015541;28;20199;-68
2021/05/29 09:13:09;;;;;;;1.20;1.07;;;17.50;39.60;;;;;;5020636;28;20193;-68
2021/05/29 09:15:58;;;;;;;2.33;1.50;;;17.30;42.50;;;;;;5011069;28;20239;-68
2021/05/29 09:18:31;;;;;;;1.20;1.10;;;17.50;38.40;;;;;;5013539;28;20221;-68
2021/05/29 09:21:24;;;;;;;4.37;1.20;;;17.60;37.80;;;;;;5019230;28;20237;-68
2021/05/29 09:23:53;;;;;;;2.37;0.77;;;17.80;39.80;;;;;;5001573;28;20360;-69
2021/05/29 09:26:23;;;;;;;0.93;0.93;;;18.10;41.00;;;;;;5007395;28;20724;-68
2021/05/29 09:28:51;;;;;;;0.83;0.83;;;18.30;39.40;;;;;;5010974;28;20323;-69
2021/05/29 09:31:17;;;;;;;0.80;0.80;;;18.00;39.80;;;;;;5022508;28;20184;-68
2021/05/29 09:33:45;;;;;;;2.50;0.97;;;18.00;40.90;;;;;;5025749;28;20228;-68
2021/05/29 09:36:13;;;;;;;2.17;0.90;;;18.20;40.00;;;;;;5022874;28;20234;-68
2021/05/29 09:38:47;;;;;;;1.73;1.10;;;18.40;39.90;;;;;;5021360;28;20234;-68
2021/05/29 09:41:29;;;;;;;0.87;0.87;;;18.40;38.90;;;;;;5021345;28;20239;-68
2021/05/29 09:44:04;;;;;;;0.80;0.80;;;18.40;38.50;;;;;;5017168;28;20267;-67
2021/05/29 09:46:30;;;;;;;1.50;1.10;;;18.30;38.70;;;;;;5019727;28;20244;-68
2021/05/29 09:49:02;;;;;;;1.37;1.10;;;18.30;40.50;;;;;;5019537;28;20179;-68
2021/05/29 09:51:32;;;;;;;1.10;0.87;;;18.30;38.70;;;;;;5019657;28;20654;-69
2021/05/29 09:54:06;;;;;;;0.80;0.80;;;18.30;39.20;;;;;;5023705;28;20912;-69
2021/05/29 09:56:36;;;;;;;1.23;0.80;;;18.30;38.40;;;;;;5019745;28;20277;-69
2021/05/29 09:59:05;;;;;;;1.53;1.20;;;18.40;39.00;;;;;;5017600;28;20223;-68
2021/05/29 10:01:40;;;;;;;1.50;0.93;;;18.40;39.10;;;;;;5015360;28;20194;-68
2021/05/29 10:04:07;;;;;;;1.10;0.83;;;18.30;39.10;;;;;;5018091;28;20304;-68
2021/05/29 10:06:33;;;;;;;3.77;1.37;;;18.30;39.60;;;;;;5012028;28;20756;-69
2021/05/29 10:08:59;;;;;;;1.10;1.00;;;18.50;39.80;;;;;;5011708;28;20231;-68
2021/05/29 10:11:25;;;;;;;2.07;0.97;;;18.60;38.80;;;;;;5015125;28;20235;-69
2021/05/29 10:13:50;;;;;;;1.90;0.97;;;18.80;38.80;;;;;;5016779;28;20276;-69
2021/05/29 10:16:17;;;;;;;1.63;1.00;;;18.90;37.40;;;;;;5014004;28;20195;-69
2021/05/29 10:18:48;;;;;;;2.03;0.73;;;18.80;37.00;;;;;;5015480;28;20300;-69
2021/05/29 10:21:14;;;;;;;1.60;0.87;;;18.80;36.70;;;;;;5016147;28;20229;-69
2021/05/29 10:23:44;;;;;;;0.83;0.83;;;18.90;38.90;;;;;;5018219;28;20234;-68
2021/05/29 10:26:10;;;;;;;0.60;0.60;;;18.50;37.50;;;;;;5018327;28;20533;-69
2021/05/29 10:28:36;;;;;;;1.57;1.23;;;18.60;37.60;;;;;;5016158;28;20221;-69
2021/05/29 10:31:01;;;;;;;1.90;0.80;;;18.70;36.70;;;;;;5017715;28;20635;-68
2021/05/29 10:33:43;;;;;;;0.90;0.90;;;18.60;35.90;;;;;;5015266;28;20261;-68
2021/05/29 10:36:36;;;;;;;1.23;0.90;;;18.60;37.30;;;;;;5019443;28;20289;-68
2021/05/29 10:39:05;;;;;;;0.70;0.70;;;18.40;36.80;;;;;;5020881;28;20294;-68
2021/05/29 10:41:52;;;;;;;0.90;0.90;;;18.60;38.00;;;;;;5014814;28;21213;-68
2021/05/29 10:44:45;;;;;;;1.00;1.00;;;18.70;37.20;;;;;;5019126;28;20234;-67
2021/05/29 10:47:15;;;;;;;1.77;1.10;;;18.80;37.90;;;;;;5014333;28;20770;-68
2021/05/29 10:49:46;;;;;;;0.93;0.93;;;19.00;37.90;;;;;;5027555;28;20210;-68
2021/05/29 10:52:42;;;;;;;1.20;1.10;;;19.20;37.00;;;;;;5019924;28;20194;-68
2021/05/29 10:55:13;;;;;;;0.90;0.90;;;19.30;36.90;;;;;;5021172;28;20228;-68
2021/05/29 10:57:51;;;;;;;1.63;1.00;;;19.40;37.00;;;;;;5020621;28;20266;-69
2021/05/29 11:00:35;;;;;;;1.37;1.03;;;19.40;38.00;;;;;;5014181;28;20228;-68
2021/05/29 11:03:16;;;;;;;1.43;0.90;;;19.60;36.80;;;;;;5016236;28;20223;-67
2021/05/29 11:05:42;;;;;;;0.80;0.80;;;19.60;36.20;;;;;;5016182;28;20331;-68
2021/05/29 11:08:45;;;;;;;1.53;1.03;;;19.70;36.90;;;;;;5017815;28;20224;-68
2021/05/29 11:11:36;;;;;;;0.97;0.90;;;19.90;37.00;;;;;;5019436;28;20311;-68
2021/05/29 11:14:09;;;;;;;1.10;1.00;;;19.90;37.00;;;;;;5017313;28;20911;-68
2021/05/29 11:16:56;;;;;;;2.97;1.47;;;20.20;37.30;;;;;;5017189;28;20194;-68
2021/05/29 11:19:26;;;;;;;0.80;0.80;;;20.50;36.40;;;;;;5005893;28;20947;-68
2021/05/29 11:22:11;;;;;;;1.30;1.20;;;20.60;37.00;;;;;;5016591;28;20233;-68
2021/05/29 11:24:50;;;;;;;2.13;0.90;;;20.40;34.00;;;;;;5017597;28;20840;-68
2021/05/29 11:27:35;;;;;;;0.70;0.70;;;19.90;33.60;;;;;;5016805;28;20227;-68
2021/05/29 11:30:22;;;;;;;1.63;0.80;;;19.80;35.10;;;;;;5017287;28;20279;-68
2021/05/29 11:32:50;;;;;;;2.80;1.00;;;20.10;35.30;;;;;;5017423;28;20258;-68
2021/05/29 11:35:50;;;;;;;0.77;0.77;;;20.50;35.50;;;;;;5016467;28;20234;-68
2021/05/29 11:38:20;;;;;;;0.80;0.80;;;20.70;33.60;;;;;;4984993;28;20232;-68
2021/05/29 11:40:52;;;;;;;1.57;1.20;;;20.90;32.50;;;;;;5016421;28;20185;-68
2021/05/29 11:43:31;;;;;;;0.90;0.80;;;21.00;33.30;;;;;;5018144;28;20264;-68
2021/05/29 11:46:00;;;;;;;1.07;0.90;;;21.40;33.30;;;;;;5013957;28;21046;-68
2021/05/29 11:48:34;;;;;;;0.70;0.67;;;21.80;33.50;;;;;;5015049;28;20284;-69
2021/05/29 11:51:15;;;;;;;1.73;0.90;;;23.00;30.90;;;;;;5015921;28;20219;-69
2021/05/29 11:53:47;;;;;;;1.35;0.75;;;23.80;29.90;;;;;;5016957;28;20327;-69
2021/05/29 11:56:15;;;;;;;0.77;0.68;;;24.60;29.30;;;;;;5019286;28;20233;-68
2021/05/29 11:58:45;;;;;;;1.02;0.80;;;24.10;29.20;;;;;;5018887;28;20200;-67
2021/05/29 12:01:12;;;;;;;0.75;0.75;;;23.60;29.60;;;;;;5017245;28;20189;-68
2021/05/29 12:03:40;;;;;;;0.80;0.80;;;24.60;29.80;;;;;;5017869;28;20266;-68
2021/05/29 12:06:06;;;;;;;0.55;0.55;;;26.20;25.50;;;;;;5017836;28;21019;-68
2021/05/29 12:08:50;;;;;;;0.85;0.85;;;25.90;26.80;;;;;;5018127;28;20222;-67
2021/05/29 12:11:16;;;;;;;0.70;0.70;;;26.90;25.10;;;;;;5016303;28;20230;-66
2021/05/29 12:13:41;;;;;;;0.80;0.80;;;27.10;23.60;;;;;;5017311;28;20192;-69
2021/05/29 12:16:08;;;;;;;1.08;1.05;;;26.00;25.20;;;;;;5016296;28;20559;-67
2021/05/29 12:18:40;;;;;;;0.80;0.80;;;25.40;25.50;;;;;;5017537;28;20227;-66
2021/05/29 12:21:07;;;;;;;0.85;0.75;;;25.80;24.60;;;;;;5016940;28;20242;-66
2021/05/29 12:23:56;;;;;;;0.80;0.73;;;26.10;25.80;;;;;;5016925;28;20752;-67
2021/05/29 12:26:24;;;;;;;0.75;0.63;;;26.50;23.10;;;;;;5016067;28;20660;-68
2021/05/29 12:28:49;;;;;;;1.27;0.82;;;27.40;22.00;;;;;;5006926;28;20694;-68
2021/05/29 12:31:18;;;;;;;1.00;0.70;;;26.80;22.10;;;;;;5008638;28;20198;-68
2021/05/29 12:33:44;;;;;;;0.60;0.60;;;26.80;24.20;;;;;;5011323;28;20288;-68
2021/05/29 12:36:14;;;;;;;0.50;0.50;;;27.50;23.50;;;;;;5009287;28;20254;-68
2021/05/29 12:39:02;;;;;;;0.60;0.60;;;26.70;22.40;;;;;;5015975;28;20231;-68
2021/05/29 12:41:37;;;;;;;0.40;0.40;;;25.90;24.00;;;;;;5017194;28;20235;-68
2021/05/29 12:44:11;;;;;;;0.63;0.63;;;25.80;22.10;;;;;;5013876;28;20236;-69
2021/05/29 12:46:39;;;;;;;0.65;0.65;;;26.20;21.50;;;;;;5012782;28;20218;-69
2021/05/29 12:49:13;;;;;;;0.50;0.50;;;26.90;20.70;;;;;;5013359;28;20635;-68
2021/05/29 12:51:40;;;;;;;0.80;0.60;;;27.40;20.60;;;;;;5016590;28;20273;-67
2021/05/29 12:54:06;;;;;;;0.88;0.70;;;27.30;21.30;;;;;;5017402;28;20270;-68
2021/05/29 12:56:32;;;;;;;0.40;0.40;;;26.60;22.00;;;;;;5011518;28;20243;-69
2021/05/29 12:59:07;;;;;;;1.85;0.60;;;27.20;20.40;;;;;;5019000;28;20238;-69
2021/05/29 13:07:38;;;;;;;0.47;0.47;;;27.90;18.00;;;;;;5020525;28;20565;-69
2021/05/29 13:10:18;;;;;;;0.90;0.70;;;28.00;19.00;;;;;;5017162;28;20235;-69
2021/05/29 13:13:08;;;;;;;0.40;0.40;;;28.30;19.40;;;;;;5012067;28;20288;-70
2021/05/29 13:15:34;;;;;;;0.40;0.40;;;29.70;18.80;;;;;;5010857;28;20229;-69